Time;durP1;ratioP1;P1;durP2;ratioP2;P2;SDS_P1;SDS_P2;PMS_P1;PMS_P2;Temp;Humidity;BMP_temperature;BMP_pressure;BME280_temperature;BME280_humidity;BME280_pressure;Samples;Min_cycle;Max_cycle;Signal;HPM_P1;HPM_P2
2021/11/20 00:01:15;;;;;;;7.27;3.30;;;12.60;99.90;;;;;;4919759;29;20449;-55
2021/11/20 00:03:44;;;;;;;6.53;2.60;;;12.70;99.90;;;;;;4920486;29;20549;-53
2021/11/20 00:06:14;;;;;;;6.30;2.83;;;12.60;99.90;;;;;;4919618;29;20482;-54
2021/11/20 00:08:41;;;;;;;6.37;2.53;;;12.60;99.90;;;;;;4919704;29;20580;-53
2021/11/20 00:11:10;;;;;;;10.43;3.40;;;12.60;99.90;;;;;;4919449;29;20572;-53
2021/11/20 00:13:38;;;;;;;6.40;2.90;;;12.60;99.90;;;;;;4919461;29;20564;-53
2021/11/20 00:16:08;;;;;;;2.90;2.33;;;12.60;99.90;;;;;;4919888;29;20521;-50
2021/11/20 00:18:35;;;;;;;4.40;3.60;;;12.50;99.90;;;;;;4920299;29;20453;-48
2021/11/20 00:21:05;;;;;;;7.33;3.50;;;12.50;99.90;;;;;;4919688;29;20449;-48
2021/11/20 00:23:38;;;;;;;6.60;3.53;;;12.50;99.90;;;;;;4919450;29;20536;-50
2021/11/20 00:26:06;;;;;;;7.47;3.00;;;12.60;99.90;;;;;;4919402;29;20926;-51
2021/11/20 00:29:03;;;;;;;10.97;3.27;;;12.60;99.90;;;;;;4919675;29;20525;-50
2021/11/20 00:31:35;;;;;;;4.60;2.93;;;12.60;99.90;;;;;;4919495;29;20493;-57
2021/11/20 00:34:02;;;;;;;4.07;2.73;;;12.60;99.90;;;;;;4920181;29;20449;-49
2021/11/20 00:36:29;;;;;;;4.03;3.47;;;12.60;99.90;;;;;;4919313;29;20991;-49
2021/11/20 00:38:58;;;;;;;4.30;3.23;;;12.60;99.90;;;;;;4919355;29;20481;-50
2021/11/20 00:41:28;;;;;;;5.90;3.73;;;12.60;99.90;;;;;;4919417;29;20503;-54
2021/11/20 00:43:56;;;;;;;5.97;3.80;;;12.60;99.90;;;;;;4919408;29;20438;-54
2021/11/20 00:46:25;;;;;;;10.30;5.13;;;12.60;99.90;;;;;;4919459;29;20769;-59
2021/11/20 00:48:53;;;;;;;3.70;2.63;;;12.60;99.90;;;;;;4920208;29;20492;-52
2021/11/20 00:51:24;;;;;;;4.40;3.67;;;12.60;99.90;;;;;;4920197;29;20485;-51
2021/11/20 00:53:51;;;;;;;11.17;3.60;;;12.60;99.90;;;;;;4918851;29;20493;-55
2021/11/20 00:56:21;;;;;;;3.33;2.60;;;12.60;99.90;;;;;;4918928;29;20544;-49
2021/11/20 00:58:48;;;;;;;4.27;2.93;;;12.60;99.90;;;;;;4918715;29;20477;-54
2021/11/20 01:01:18;;;;;;;3.27;2.97;;;12.60;99.90;;;;;;4919592;29;20544;-59
2021/11/20 01:03:45;;;;;;;4.63;3.37;;;12.50;99.90;;;;;;4919514;29;20474;-51
2021/11/20 01:06:12;;;;;;;10.13;3.20;;;12.50;99.90;;;;;;4918646;29;20496;-50
2021/11/20 01:08:41;;;;;;;7.80;3.20;;;12.60;99.90;;;;;;4918849;29;20481;-51
2021/11/20 01:11:13;;;;;;;3.43;2.97;;;12.50;99.90;;;;;;4918691;29;20517;-51
2021/11/20 01:13:41;;;;;;;5.77;3.20;;;12.50;99.90;;;;;;4918289;29;21031;-49
2021/11/20 01:16:11;;;;;;;7.20;3.30;;;12.50;99.90;;;;;;4919497;29;20508;-52
2021/11/20 01:18:38;;;;;;;5.30;2.70;;;12.50;99.90;;;;;;4919009;29;20537;-51
2021/11/20 01:21:05;;;;;;;3.67;2.27;;;12.50;99.90;;;;;;4918307;29;20947;-49
2021/11/20 01:23:34;;;;;;;5.00;3.30;;;12.50;99.90;;;;;;4918673;29;20496;-51
2021/11/20 01:28:48;;;;;;;5.90;2.53;;;12.50;99.90;;;;;;4906543;23;20979;-50
2021/11/20 01:33:48;;;;;;;3.93;2.40;;;12.50;99.90;;;;;;4904961;23;20554;-52
2021/11/20 01:36:18;;;;;;;4.47;2.83;;;12.50;99.90;;;;;;4899319;29;20486;-53
2021/11/20 01:38:45;;;;;;;3.83;2.73;;;12.50;99.90;;;;;;4906508;23;20832;-57
2021/11/20 01:41:13;;;;;;;8.50;3.33;;;12.50;99.90;;;;;;4899549;29;20482;-50
2021/11/20 01:43:42;;;;;;;4.03;2.73;;;12.40;99.90;;;;;;4906547;23;20522;-53
2021/11/20 01:46:17;;;;;;;3.10;2.80;;;12.40;99.90;;;;;;4901267;29;20478;-51
2021/11/20 01:49:01;;;;;;;3.27;2.50;;;12.50;99.90;;;;;;4906605;23;20502;-51
2021/11/20 01:51:31;;;;;;;6.00;2.63;;;12.40;99.90;;;;;;4899797;29;20471;-54
2021/11/20 01:54:14;;;;;;;2.77;2.33;;;12.40;99.90;;;;;;4907413;23;20566;-51
2021/11/20 01:56:46;;;;;;;5.47;2.70;;;12.40;99.90;;;;;;4899613;29;20506;-52
2021/11/20 01:59:26;;;;;;;6.67;2.50;;;12.40;99.90;;;;;;4906770;23;20525;-55
2021/11/20 02:01:58;;;;;;;10.40;3.20;;;12.30;99.90;;;;;;4900624;29;20462;-51
2021/11/20 02:04:31;;;;;;;5.43;2.70;;;12.30;99.90;;;;;;4892052;23;20518;-53
2021/11/20 02:07:05;;;;;;;4.50;2.70;;;12.40;99.90;;;;;;4880759;29;20486;-51
2021/11/20 02:09:36;;;;;;;4.10;2.50;;;12.40;99.90;;;;;;4901111;23;20990;-55
2021/11/20 02:12:07;;;;;;;3.23;2.37;;;12.40;99.90;;;;;;4899498;29;20602;-51
2021/11/20 02:14:36;;;;;;;5.70;2.70;;;12.40;99.90;;;;;;4906739;23;20599;-52
2021/11/20 02:17:08;;;;;;;4.50;2.00;;;12.40;99.90;;;;;;4899271;29;20946;-53
2021/11/20 02:19:37;;;;;;;4.33;2.73;;;12.40;99.90;;;;;;4906296;23;20518;-54
2021/11/20 02:22:10;;;;;;;5.10;2.30;;;12.40;99.90;;;;;;4899367;29;20545;-53
2021/11/20 02:24:37;;;;;;;4.43;2.80;;;12.40;99.90;;;;;;4906913;23;20521;-59
2021/11/20 02:27:09;;;;;;;5.90;2.50;;;12.40;99.90;;;;;;4903940;29;20482;-53
2021/11/20 02:29:45;;;;;;;3.80;1.97;;;12.40;99.90;;;;;;4909896;23;20932;-53
2021/11/20 02:32:14;;;;;;;3.63;2.70;;;12.40;99.90;;;;;;4902674;29;20481;-52
2021/11/20 02:34:42;;;;;;;4.10;2.23;;;12.40;99.90;;;;;;4909737;23;20581;-52
2021/11/20 02:37:10;;;;;;;3.73;2.37;;;12.50;99.90;;;;;;4902843;29;20450;-54
2021/11/20 02:39:38;;;;;;;2.40;2.20;;;12.40;99.90;;;;;;4910546;23;20548;-53
2021/11/20 02:42:09;;;;;;;11.30;2.40;;;12.50;99.90;;;;;;4903240;29;20823;-53
2021/11/20 02:44:36;;;;;;;5.67;2.30;;;12.40;99.90;;;;;;4909608;23;20523;-55
2021/11/20 02:47:07;;;;;;;2.10;1.77;;;12.40;99.90;;;;;;4909626;23;20588;-54
2021/11/20 02:49:36;;;;;;;4.10;2.17;;;12.40;99.90;;;;;;4902604;29;20473;-51
2021/11/20 02:52:07;;;;;;;5.03;2.30;;;12.40;99.90;;;;;;4909477;23;20891;-49
2021/11/20 02:54:34;;;;;;;3.23;2.20;;;12.40;99.90;;;;;;4902966;29;20506;-49
2021/11/20 02:57:07;;;;;;;3.50;1.53;;;12.40;99.90;;;;;;4909798;23;20486;-53
2021/11/20 02:59:35;;;;;;;3.73;2.33;;;12.50;99.90;;;;;;4902483;29;20529;-51
2021/11/20 03:02:02;;;;;;;2.53;1.93;;;12.50;99.90;;;;;;4909130;23;20521;-53
2021/11/20 03:04:29;;;;;;;3.17;2.53;;;12.40;99.90;;;;;;4902004;29;20569;-52
2021/11/20 03:06:58;;;;;;;10.53;2.27;;;12.40;99.90;;;;;;4909173;23;20559;-52
2021/11/20 03:09:28;;;;;;;2.00;1.70;;;12.40;99.90;;;;;;4903420;29;20565;-54
2021/11/20 03:11:57;;;;;;;2.50;2.27;;;12.40;99.90;;;;;;4909413;23;20585;-50
2021/11/20 03:14:24;;;;;;;3.20;2.20;;;12.30;99.90;;;;;;4902100;29;20569;-51
2021/11/20 03:16:53;;;;;;;5.50;2.43;;;12.30;99.90;;;;;;4909664;23;20525;-53
2021/11/20 03:19:22;;;;;;;4.27;1.90;;;12.30;99.90;;;;;;4902017;29;20518;-51
2021/11/20 03:21:51;;;;;;;2.87;1.50;;;12.20;99.90;;;;;;4909303;23;20479;-53
2021/11/20 03:24:21;;;;;;;3.37;1.97;;;12.20;99.90;;;;;;4902578;29;20521;-57
2021/11/20 03:26:49;;;;;;;2.97;2.00;;;12.20;99.90;;;;;;4909734;23;20498;-52
2021/11/20 03:29:16;;;;;;;3.40;2.30;;;12.20;99.90;;;;;;4902629;23;20597;-53
2021/11/20 03:31:43;;;;;;;9.10;1.97;;;12.20;99.90;;;;;;4901841;29;20522;-51
2021/11/20 03:34:11;;;;;;;13.03;2.60;;;12.10;99.90;;;;;;4909516;23;20518;-51
2021/11/20 03:36:39;;;;;;;6.40;2.50;;;12.10;99.90;;;;;;4901671;29;20483;-56
2021/11/20 03:39:08;;;;;;;4.80;2.10;;;12.10;99.90;;;;;;4908720;23;20648;-51
2021/11/20 03:41:37;;;;;;;3.40;2.30;;;12.20;99.90;;;;;;4901720;29;20537;-51
2021/11/20 03:44:05;;;;;;;4.70;3.40;;;12.20;99.90;;;;;;4908838;23;20504;-55
2021/11/20 03:46:32;;;;;;;2.60;2.10;;;12.20;99.90;;;;;;4902784;29;20535;-55
2021/11/20 03:48:59;;;;;;;4.80;2.00;;;12.20;99.90;;;;;;4923634;23;20526;-53
2021/11/20 03:51:26;;;;;;;2.40;1.93;;;12.10;99.90;;;;;;4901521;29;20514;-53
2021/11/20 03:53:53;;;;;;;3.00;2.00;;;12.10;99.90;;;;;;4908660;23;20537;-55
2021/11/20 03:56:20;;;;;;;5.37;2.20;;;12.10;99.90;;;;;;4901404;29;20526;-52
2021/11/20 04:01:28;;;;;;;7.73;1.67;;;12.00;99.90;;;;;;4906164;23;20485;-56
2021/11/20 04:06:35;;;;;;;1.70;1.30;;;12.00;99.90;;;;;;4908448;23;20486;-55
2021/11/20 04:09:03;;;;;;;2.10;1.60;;;12.00;99.90;;;;;;4900972;29;20553;-53
2021/11/20 04:11:34;;;;;;;1.97;1.60;;;12.00;99.90;;;;;;4908157;23;20494;-58
2021/11/20 04:14:01;;;;;;;3.00;1.70;;;11.90;99.90;;;;;;4900827;29;20511;-52
2021/11/20 04:16:33;;;;;;;2.40;1.70;;;11.90;99.90;;;;;;4908170;23;20526;-52
2021/11/20 04:19:00;;;;;;;7.57;1.73;;;11.90;99.90;;;;;;4900687;29;20449;-54
2021/11/20 04:21:28;;;;;;;2.73;2.03;;;11.90;99.90;;;;;;4907830;23;20589;-52
2021/11/20 04:23:57;;;;;;;3.47;1.70;;;11.90;99.90;;;;;;4900566;29;20450;-53
2021/11/20 04:26:26;;;;;;;4.70;1.70;;;11.90;99.90;;;;;;4915079;23;20545;-53
2021/11/20 04:28:53;;;;;;;1.53;1.10;;;11.90;99.90;;;;;;4900739;29;20834;-55
2021/11/20 04:31:21;;;;;;;3.47;1.50;;;11.90;99.90;;;;;;4907495;23;20581;-52
2021/11/20 04:33:51;;;;;;;6.70;2.17;;;11.90;99.90;;;;;;4900527;29;20506;-55
2021/11/20 04:36:18;;;;;;;5.83;2.00;;;11.90;99.90;;;;;;4907787;23;20546;-56
2021/11/20 04:38:45;;;;;;;2.20;1.37;;;11.90;99.90;;;;;;4881779;29;20558;-55
2021/11/20 04:43:54;;;;;;;4.00;1.33;;;11.90;99.90;;;;;;4907271;23;21002;-52
2021/11/20 04:46:24;;;;;;;2.10;1.43;;;12.00;99.90;;;;;;4900400;29;20492;-54
2021/11/20 04:48:53;;;;;;;2.37;1.50;;;11.90;99.90;;;;;;4907147;23;20517;-54
2021/11/20 04:51:20;;;;;;;2.43;1.80;;;11.90;99.90;;;;;;4900194;29;20585;-55
2021/11/20 04:53:48;;;;;;;3.30;1.60;;;11.80;99.90;;;;;;4907427;23;20896;-54
2021/11/20 04:56:17;;;;;;;2.47;2.00;;;11.80;99.90;;;;;;4900066;29;20501;-52
2021/11/20 04:58:45;;;;;;;3.33;3.03;;;11.90;99.90;;;;;;4907157;23;20532;-53
2021/11/20 05:01:12;;;;;;;5.67;2.00;;;11.80;99.90;;;;;;4899960;29;20549;-54
2021/11/20 05:03:41;;;;;;;1.93;1.67;;;11.80;99.90;;;;;;4907143;23;20571;-53
2021/11/20 05:06:10;;;;;;;2.13;1.20;;;11.80;99.90;;;;;;4900197;29;21123;-55
2021/11/20 05:08:38;;;;;;;3.93;2.50;;;11.80;99.90;;;;;;4914176;23;20521;-54
2021/11/20 05:11:05;;;;;;;3.63;2.07;;;11.80;99.90;;;;;;4899965;29;20808;-51
2021/11/20 05:13:33;;;;;;;3.70;1.77;;;11.80;99.90;;;;;;4908338;23;20566;-63
2021/11/20 05:16:00;;;;;;;3.83;1.70;;;11.80;99.90;;;;;;4899084;29;20483;-55
2021/11/20 05:18:30;;;;;;;2.10;1.73;;;11.80;99.90;;;;;;4899814;29;20497;-51
2021/11/20 05:21:00;;;;;;;2.23;1.90;;;11.80;99.90;;;;;;4890811;23;20523;-52
2021/11/20 05:23:30;;;;;;;2.70;1.87;;;11.80;99.90;;;;;;4881249;29;20469;-51
2021/11/20 05:25:56;;;;;;;2.43;2.10;;;11.70;99.90;;;;;;4904352;23;20581;-55
2021/11/20 05:28:24;;;;;;;2.00;1.70;;;11.80;99.90;;;;;;4899695;29;20501;-53
2021/11/20 05:30:52;;;;;;;2.97;2.13;;;11.80;99.90;;;;;;4907140;23;20999;-55
2021/11/20 05:33:22;;;;;;;2.10;1.67;;;11.80;99.90;;;;;;4899788;29;20581;-55
2021/11/20 05:35:50;;;;;;;3.70;1.50;;;11.80;99.90;;;;;;4906888;23;20976;-50
2021/11/20 05:38:18;;;;;;;3.03;1.53;;;11.80;99.90;;;;;;4899623;29;20454;-52
2021/11/20 05:40:46;;;;;;;3.03;2.13;;;11.80;99.90;;;;;;4906635;23;20502;-54
2021/11/20 05:43:16;;;;;;;3.07;2.00;;;11.80;99.90;;;;;;4900720;29;20549;-52
2021/11/20 05:45:46;;;;;;;1.83;1.50;;;11.80;99.90;;;;;;4906719;23;20999;-54
2021/11/20 05:48:14;;;;;;;3.53;1.47;;;11.80;99.90;;;;;;4899805;29;20462;-54
2021/11/20 05:53:14;;;;;;;5.00;1.83;;;11.80;99.90;;;;;;4904587;23;20490;-53
2021/11/20 05:55:42;;;;;;;5.50;2.83;;;11.80;99.90;;;;;;4899828;29;20509;-57
2021/11/20 05:58:11;;;;;;;3.00;1.70;;;11.80;99.90;;;;;;4907013;23;20546;-54
2021/11/20 06:00:42;;;;;;;3.17;1.67;;;11.80;99.90;;;;;;4900542;29;20493;-54
2021/11/20 06:03:10;;;;;;;3.07;1.70;;;11.80;99.90;;;;;;4910306;23;20507;-55
2021/11/20 06:05:40;;;;;;;3.83;2.30;;;11.80;99.90;;;;;;4903254;29;20811;-55
2021/11/20 06:08:07;;;;;;;4.13;1.83;;;11.80;99.90;;;;;;4910233;23;20517;-53
2021/11/20 06:10:35;;;;;;;2.30;1.97;;;11.70;99.90;;;;;;4903599;29;20565;-57
2021/11/20 06:13:04;;;;;;;2.77;1.70;;;11.70;99.90;;;;;;4910205;23;21023;-54
2021/11/20 06:15:33;;;;;;;3.93;2.03;;;11.80;99.90;;;;;;4903200;29;20506;-55
2021/11/20 06:18:01;;;;;;;2.80;1.67;;;11.70;99.90;;;;;;4910347;23;20818;-53
2021/11/20 06:20:28;;;;;;;3.07;1.90;;;11.80;99.90;;;;;;4902901;29;20569;-53
2021/11/20 06:22:55;;;;;;;2.27;1.40;;;11.90;99.90;;;;;;4910111;23;20529;-55
2021/11/20 06:25:22;;;;;;;2.10;1.60;;;11.90;99.90;;;;;;4902773;29;20474;-54
2021/11/20 06:27:51;;;;;;;3.67;2.20;;;11.80;99.90;;;;;;4910208;23;20557;-53
2021/11/20 06:30:23;;;;;;;5.13;2.07;;;11.80;99.90;;;;;;4902736;29;20524;-56
2021/11/20 06:32:52;;;;;;;2.77;1.70;;;11.80;99.90;;;;;;4909975;23;20508;-52
2021/11/20 06:35:21;;;;;;;6.40;1.97;;;11.80;99.90;;;;;;4909700;23;21009;-51
2021/11/20 06:37:50;;;;;;;2.07;1.77;;;11.90;99.90;;;;;;4902605;29;20521;-52
2021/11/20 06:40:20;;;;;;;3.50;1.70;;;11.80;99.90;;;;;;4909834;23;20565;-52
2021/11/20 06:42:48;;;;;;;2.63;1.63;;;11.80;99.90;;;;;;4902764;29;20525;-54
2021/11/20 06:45:20;;;;;;;1.83;1.60;;;11.80;99.90;;;;;;4909483;23;20498;-47
2021/11/20 06:47:47;;;;;;;2.93;2.10;;;11.80;99.90;;;;;;4902576;29;20438;-55
2021/11/20 06:50:15;;;;;;;2.10;1.50;;;11.70;99.90;;;;;;4909575;23;20526;-52
2021/11/20 06:52:43;;;;;;;3.37;2.07;;;11.70;99.90;;;;;;4902401;29;20521;-53
2021/11/20 06:55:11;;;;;;;2.33;1.53;;;11.70;99.90;;;;;;4909663;23;20532;-54
2021/11/20 07:00:28;;;;;;;4.93;1.60;;;11.80;99.90;;;;;;4907553;23;20579;-50
2021/11/20 07:02:59;;;;;;;5.43;2.23;;;11.70;99.90;;;;;;4902464;29;20459;-49
2021/11/20 07:05:29;;;;;;;4.10;1.87;;;11.60;99.90;;;;;;4909379;23;20486;-54
2021/11/20 07:07:57;;;;;;;4.30;2.53;;;11.70;99.90;;;;;;4902519;29;20470;-55
2021/11/20 07:10:26;;;;;;;2.50;2.13;;;11.60;99.90;;;;;;4909091;23;20554;-56
2021/11/20 07:12:55;;;;;;;8.03;2.80;;;11.60;99.90;;;;;;4901729;29;20561;-54
2021/11/20 07:15:23;;;;;;;5.00;2.50;;;11.60;99.90;;;;;;4909234;23;20592;-55
2021/11/20 07:17:52;;;;;;;2.27;2.07;;;11.60;99.90;;;;;;4902255;29;20490;-54
2021/11/20 07:20:20;;;;;;;3.00;2.17;;;11.60;99.90;;;;;;4908897;23;20500;-51
2021/11/20 07:22:49;;;;;;;5.83;2.70;;;11.60;99.90;;;;;;4909027;23;20525;-53
2021/11/20 07:25:17;;;;;;;3.73;2.40;;;11.60;99.90;;;;;;4901709;29;20458;-53
2021/11/20 07:27:45;;;;;;;2.13;1.77;;;11.60;99.90;;;;;;4909459;23;20522;-50
2021/11/20 07:30:14;;;;;;;4.77;2.80;;;11.60;99.90;;;;;;4901935;29;20956;-53
2021/11/20 07:32:41;;;;;;;6.07;2.03;;;11.50;99.90;;;;;;4908767;23;20497;-54
2021/11/20 07:35:09;;;;;;;10.60;2.87;;;11.60;99.90;;;;;;4901882;29;20454;-51
2021/11/20 07:37:36;;;;;;;4.57;2.63;;;11.60;99.90;;;;;;4909125;23;20980;-51
2021/11/20 07:40:07;;;;;;;2.87;1.80;;;11.50;99.90;;;;;;4901927;29;20454;-55
2021/11/20 07:42:34;;;;;;;4.93;2.70;;;11.50;99.90;;;;;;4908958;23;20976;-55
2021/11/20 07:45:04;;;;;;;3.77;2.40;;;11.50;99.90;;;;;;4901500;29;20589;-53
2021/11/20 07:47:31;;;;;;;5.50;2.90;;;11.50;99.90;;;;;;4908661;23;20980;-55
2021/11/20 07:49:57;;;;;;;4.17;2.70;;;11.50;99.90;;;;;;4901554;29;20467;-53
2021/11/20 07:52:24;;;;;;;4.30;3.03;;;11.50;99.90;;;;;;4908196;23;20576;-55
2021/11/20 07:54:51;;;;;;;8.40;2.30;;;11.50;99.90;;;;;;4908514;23;20581;-54
2021/11/20 07:57:20;;;;;;;3.50;2.37;;;11.50;99.90;;;;;;4901333;29;20857;-55
2021/11/20 07:59:47;;;;;;;6.10;2.67;;;11.50;99.90;;;;;;4908633;23;20578;-51
2021/11/20 08:02:13;;;;;;;4.93;3.33;;;11.50;99.90;;;;;;4901084;29;20960;-54
2021/11/20 08:04:41;;;;;;;7.03;3.87;;;11.50;99.90;;;;;;4908513;23;21027;-58
2021/11/20 08:07:09;;;;;;;5.70;3.50;;;11.50;99.90;;;;;;4901296;29;20493;-53
2021/11/20 08:09:37;;;;;;;7.40;3.17;;;11.50;99.90;;;;;;4908367;23;20906;-55
2021/11/20 08:12:05;;;;;;;3.83;3.43;;;11.60;99.90;;;;;;4900808;29;20585;-53
2021/11/20 08:14:34;;;;;;;4.53;3.67;;;11.50;99.90;;;;;;4907948;23;20582;-55
2021/11/20 08:17:01;;;;;;;8.47;4.07;;;11.50;99.90;;;;;;4900768;29;20936;-55
2021/11/20 08:19:28;;;;;;;5.33;3.87;;;11.50;99.90;;;;;;4908049;23;20577;-53
2021/11/20 08:21:55;;;;;;;4.83;3.50;;;11.50;99.90;;;;;;4900970;29;20724;-53
2021/11/20 08:24:23;;;;;;;4.43;3.73;;;11.50;99.90;;;;;;4907760;23;20502;-50
2021/11/20 08:26:50;;;;;;;5.10;3.53;;;11.50;99.90;;;;;;4900391;29;20479;-51
2021/11/20 08:29:19;;;;;;;7.63;4.17;;;11.50;99.90;;;;;;4901027;29;20494;-50
2021/11/20 08:31:50;;;;;;;7.67;4.00;;;11.60;99.90;;;;;;4907749;23;20502;-48
2021/11/20 08:34:18;;;;;;;9.10;3.37;;;11.60;99.90;;;;;;4900937;29;20896;-54
2021/11/20 08:36:46;;;;;;;7.50;3.67;;;11.60;99.90;;;;;;4907599;23;20999;-51
2021/11/20 08:39:16;;;;;;;13.33;4.13;;;11.70;99.90;;;;;;4900434;29;20461;-54
2021/11/20 08:41:43;;;;;;;4.50;3.17;;;11.70;99.90;;;;;;4907528;23;20581;-51
2021/11/20 08:44:11;;;;;;;15.53;4.20;;;11.70;99.90;;;;;;4900320;29;20518;-54
2021/11/20 08:46:38;;;;;;;8.73;4.23;;;11.70;99.90;;;;;;4900414;29;20548;-54
2021/11/20 08:49:07;;;;;;;5.97;3.53;;;11.70;99.90;;;;;;4900479;29;20530;-54
2021/11/20 08:51:36;;;;;;;4.07;2.83;;;11.80;99.90;;;;;;4900430;29;20538;-54
2021/11/20 08:54:04;;;;;;;6.00;4.00;;;11.80;99.90;;;;;;4900193;29;20470;-50
2021/11/20 08:56:32;;;;;;;20.20;4.30;;;11.90;99.90;;;;;;4900179;29;20474;-54
2021/11/20 08:58:59;;;;;;;6.20;3.63;;;12.00;99.90;;;;;;4900458;29;20892;-54
2021/11/20 09:01:29;;;;;;;7.10;3.70;;;12.00;99.90;;;;;;4900110;29;20945;-58
2021/11/20 09:04:15;;;;;;;4.10;3.10;;;12.10;99.90;;;;;;4900485;29;20503;-51
2021/11/20 09:06:52;;;;;;;6.97;3.80;;;12.20;99.90;;;;;;4900160;29;20936;-55
2021/11/20 09:09:23;;;;;;;11.00;4.10;;;12.20;99.90;;;;;;4899917;29;20470;-53
2021/11/20 09:11:57;;;;;;;9.90;4.20;;;12.30;99.90;;;;;;4900098;29;20482;-54
2021/11/20 09:14:28;;;;;;;4.37;3.33;;;12.30;99.90;;;;;;4900142;29;20470;-53
2021/11/20 09:16:58;;;;;;;5.10;3.53;;;12.30;99.90;;;;;;4900024;29;20500;-55
2021/11/20 09:19:27;;;;;;;6.40;4.07;;;12.40;99.90;;;;;;4900151;29;20490;-54
2021/11/20 09:21:55;;;;;;;5.40;3.63;;;12.40;99.90;;;;;;4899915;29;20502;-56
2021/11/20 09:24:22;;;;;;;6.07;3.53;;;12.50;99.90;;;;;;4899703;29;20458;-55
2021/11/20 09:26:49;;;;;;;4.37;3.47;;;12.50;99.90;;;;;;4899645;29;20458;-50
2021/11/20 09:29:17;;;;;;;9.70;2.73;;;12.40;99.90;;;;;;4899719;29;20534;-54
2021/11/20 09:31:46;;;;;;;8.50;3.73;;;12.40;99.90;;;;;;4900320;29;20531;-55
2021/11/20 09:34:16;;;;;;;4.13;2.87;;;12.50;99.90;;;;;;4899455;29;20562;-54
2021/11/20 09:36:45;;;;;;;4.30;3.13;;;12.60;99.90;;;;;;4899762;29;20602;-49
2021/11/20 09:39:14;;;;;;;5.70;2.50;;;12.60;99.90;;;;;;4900493;29;20488;-58
2021/11/20 09:41:57;;;;;;;3.50;2.13;;;12.60;99.90;;;;;;4899842;29;20528;-53
2021/11/20 09:44:24;;;;;;;9.00;2.37;;;12.50;99.90;;;;;;4899603;29;20435;-54
2021/11/20 09:46:53;;;;;;;2.77;2.07;;;12.50;99.90;;;;;;4899746;29;20478;-53
2021/11/20 09:49:30;;;;;;;3.43;2.77;;;12.40;99.90;;;;;;4899795;29;20980;-53
2021/11/20 09:51:59;;;;;;;4.20;2.63;;;12.30;99.90;;;;;;4899408;29;20506;-54
2021/11/20 09:54:27;;;;;;;5.00;3.13;;;12.40;99.90;;;;;;4899428;29;20486;-55
2021/11/20 09:56:58;;;;;;;4.30;2.90;;;12.40;99.90;;;;;;4899429;29;20564;-56
2021/11/20 09:59:30;;;;;;;4.40;3.57;;;12.40;99.90;;;;;;4900132;29;20446;-54
2021/11/20 10:02:07;;;;;;;3.30;2.70;;;12.40;99.90;;;;;;4899537;29;20505;-55
2021/11/20 10:04:51;;;;;;;3.97;2.93;;;12.40;99.90;;;;;;4899482;29;20431;-54
2021/11/20 10:07:26;;;;;;;3.87;2.93;;;12.40;99.90;;;;;;4899555;29;20558;-52
2021/11/20 10:09:56;;;;;;;5.23;2.70;;;12.40;99.90;;;;;;4899490;29;20450;-54
2021/11/20 10:12:29;;;;;;;7.97;2.87;;;12.40;99.90;;;;;;4899472;29;20488;-53
2021/11/20 10:14:59;;;;;;;9.53;3.20;;;12.40;99.90;;;;;;4899404;29;20494;-55
2021/11/20 10:17:37;;;;;;;3.20;2.50;;;12.50;99.90;;;;;;4899304;29;21022;-52
2021/11/20 10:20:28;;;;;;;4.20;2.33;;;12.50;99.90;;;;;;4899523;29;20446;-51
2021/11/20 10:23:03;;;;;;;10.07;3.53;;;12.50;99.90;;;;;;4899219;29;20478;-53
2021/11/20 10:25:53;;;;;;;13.13;3.60;;;12.40;99.90;;;;;;4899301;29;20430;-54
2021/11/20 10:28:37;;;;;;;5.20;3.13;;;12.50;99.90;;;;;;4899566;29;20478;-54
2021/11/20 10:31:09;;;;;;;7.33;2.90;;;12.70;99.90;;;;;;4899496;29;20792;-54
2021/11/20 10:33:40;;;;;;;4.97;2.97;;;12.70;99.90;;;;;;4899360;29;20490;-53
2021/11/20 10:36:12;;;;;;;2.83;2.60;;;12.70;99.90;;;;;;4899169;29;20451;-52
2021/11/20 10:38:45;;;;;;;11.33;4.17;;;12.60;99.90;;;;;;4899179;29;20881;-52
2021/11/20 10:41:33;;;;;;;8.80;4.40;;;12.60;99.90;;;;;;4899096;29;20915;-54
2021/11/20 10:44:15;;;;;;;8.20;3.73;;;12.60;99.90;;;;;;4899273;29;20797;-52
2021/11/20 10:47:01;;;;;;;9.70;3.80;;;12.50;99.90;;;;;;4900283;29;20442;-56
2021/11/20 10:49:51;;;;;;;6.80;3.30;;;12.40;99.90;;;;;;4902307;29;20866;-55
2021/11/20 10:52:52;;;;;;;10.30;4.33;;;12.40;99.90;;;;;;4902363;29;20550;-51
2021/11/20 10:55:28;;;;;;;5.97;3.80;;;12.50;99.90;;;;;;4902655;29;20521;-52
2021/11/20 10:58:17;;;;;;;6.00;3.83;;;12.40;99.90;;;;;;4902509;29;20477;-54
2021/11/20 11:01:21;;;;;;;10.23;4.07;;;12.40;99.90;;;;;;4893619;29;20526;-52
2021/11/20 11:03:52;;;;;;;8.67;4.57;;;12.40;99.90;;;;;;4900211;29;20991;-54
2021/11/20 11:06:41;;;;;;;7.47;4.73;;;12.40;99.90;;;;;;4902443;29;20438;-53
2021/11/20 11:09:22;;;;;;;7.03;4.30;;;12.40;99.90;;;;;;4917167;29;20430;-54
2021/11/20 11:11:55;;;;;;;9.30;3.97;;;12.50;99.90;;;;;;4922161;29;20475;-51
2021/11/20 11:14:50;;;;;;;11.43;5.40;;;12.40;99.90;;;;;;4922346;29;20462;-53
2021/11/20 11:17:48;;;;;;;5.73;3.53;;;12.50;99.90;;;;;;4897687;29;20485;-52
2021/11/20 11:20:22;;;;;;;6.57;4.60;;;12.50;99.90;;;;;;4922585;29;20418;-53
2021/11/20 11:22:54;;;;;;;7.43;4.00;;;12.50;99.90;;;;;;4922027;29;20473;-50
2021/11/20 11:25:23;;;;;;;6.00;4.23;;;12.50;99.90;;;;;;4922003;29;20446;-51
2021/11/20 11:28:27;;;;;;;5.77;4.37;;;12.60;99.90;;;;;;4922447;29;20561;-53
2021/11/20 11:31:10;;;;;;;6.70;4.53;;;12.70;99.90;;;;;;4922017;29;20422;-53
2021/11/20 11:33:39;;;;;;;5.20;4.10;;;12.70;99.90;;;;;;4921779;29;20497;-52
2021/11/20 11:36:15;;;;;;;6.83;3.80;;;12.70;99.90;;;;;;4922162;29;20483;-54
2021/11/20 11:39:32;;;;;;;7.27;4.00;;;12.60;99.90;;;;;;4921612;29;20493;-54
2021/11/20 11:42:12;;;;;;;8.23;5.70;;;12.60;99.90;;;;;;4921918;29;20504;-54
2021/11/20 11:44:59;;;;;;;5.93;5.20;;;12.60;99.90;;;;;;4922178;29;20431;-55
2021/11/20 11:47:32;;;;;;;6.43;4.40;;;12.60;99.90;;;;;;4921888;29;20438;-53
2021/11/20 11:50:27;;;;;;;5.37;4.13;;;12.60;99.90;;;;;;4921947;29;20448;-53
2021/11/20 11:52:58;;;;;;;4.50;3.80;;;12.50;99.90;;;;;;4921587;29;20458;-54
2021/11/20 11:55:45;;;;;;;9.33;4.60;;;12.60;99.90;;;;;;4922073;29;20422;-51
2021/11/20 11:58:36;;;;;;;14.73;5.00;;;12.60;99.90;;;;;;4921479;29;20467;-52
2021/11/20 12:01:08;;;;;;;7.23;4.70;;;12.60;99.90;;;;;;4896070;29;20463;-53
2021/11/20 12:03:36;;;;;;;7.10;5.20;;;12.70;99.90;;;;;;4921570;29;20495;-50
2021/11/20 12:06:32;;;;;;;7.00;5.20;;;12.60;99.90;;;;;;4921756;29;20481;-53
2021/11/20 12:09:02;;;;;;;6.03;4.40;;;12.60;99.90;;;;;;4921604;29;20664;-54
2021/11/20 12:11:35;;;;;;;6.30;4.90;;;12.60;99.90;;;;;;4921781;29;20502;-52
2021/11/20 12:14:18;;;;;;;8.93;5.70;;;12.50;99.90;;;;;;4921465;29;20498;-57
2021/11/20 12:16:53;;;;;;;9.93;5.90;;;12.50;99.90;;;;;;4921203;29;20466;-54
2021/11/20 12:19:37;;;;;;;11.00;5.57;;;12.50;99.90;;;;;;4920995;29;20470;-53
2021/11/20 12:22:17;;;;;;;5.80;4.53;;;12.50;99.90;;;;;;4921041;29;20439;-52
2021/11/20 12:24:48;;;;;;;6.83;5.70;;;12.40;99.90;;;;;;4921314;29;20481;-54
2021/11/20 12:27:36;;;;;;;7.77;5.80;;;12.40;99.90;;;;;;4921068;29;20438;-55
2021/11/20 12:30:19;;;;;;;7.93;5.80;;;12.40;99.90;;;;;;4920973;29;20443;-52
2021/11/20 12:33:21;;;;;;;5.13;4.17;;;12.40;99.90;;;;;;4920825;29;20427;-55
2021/11/20 12:36:31;;;;;;;7.13;5.60;;;12.50;99.90;;;;;;4916248;29;20481;-52
2021/11/20 12:39:16;;;;;;;6.50;5.30;;;12.40;99.90;;;;;;4921163;29;20473;-54
2021/11/20 12:42:02;;;;;;;7.87;6.20;;;12.40;99.90;;;;;;4920997;29;20438;-52
2021/11/20 12:45:00;;;;;;;10.47;6.00;;;12.50;99.90;;;;;;4920808;29;20467;-51
2021/11/20 12:47:56;;;;;;;7.27;5.67;;;12.50;99.90;;;;;;4920473;29;20446;-54
2021/11/20 12:50:32;;;;;;;8.07;5.60;;;12.50;99.90;;;;;;4920329;29;20467;-54
2021/11/20 12:53:05;;;;;;;6.87;5.57;;;12.50;99.90;;;;;;4920413;29;20434;-48
2021/11/20 12:55:49;;;;;;;8.77;4.87;;;12.50;99.90;;;;;;4920410;29;20477;-52
2021/11/20 12:58:19;;;;;;;6.37;4.67;;;12.50;99.90;;;;;;4920641;29;20462;-53
2021/11/20 13:00:52;;;;;;;9.13;5.10;;;12.60;99.90;;;;;;4920519;29;20455;-54
2021/11/20 13:03:29;;;;;;;10.87;5.30;;;12.60;99.90;;;;;;4920936;29;20475;-50
2021/11/20 13:05:58;;;;;;;10.70;6.10;;;12.70;99.90;;;;;;4920784;29;20431;-53
2021/11/20 13:08:30;;;;;;;8.27;4.90;;;12.60;99.90;;;;;;4920136;29;20470;-49
2021/11/20 13:11:05;;;;;;;10.10;4.97;;;12.60;99.90;;;;;;4920086;29;20434;-52
2021/11/20 13:13:40;;;;;;;10.13;5.03;;;12.70;99.90;;;;;;4919766;29;20484;-49
2021/11/20 13:16:45;;;;;;;7.10;4.70;;;12.60;99.90;;;;;;4920143;29;20885;-52
2021/11/20 13:19:22;;;;;;;8.77;5.67;;;12.60;99.90;;;;;;4920399;29;20462;-56
2021/11/20 13:22:12;;;;;;;8.40;5.27;;;12.60;99.90;;;;;;4920001;29;20464;-54
2021/11/20 13:24:47;;;;;;;5.67;4.80;;;12.60;99.90;;;;;;4920137;29;20494;-53
2021/11/20 13:27:54;;;;;;;13.10;5.57;;;12.60;99.90;;;;;;4920245;29;20501;-49
2021/11/20 13:30:23;;;;;;;9.63;5.47;;;12.60;99.90;;;;;;4920803;29;20423;-53